sensor_id;sensor_type;location;lat;lon;timestamp;pressure;altitude;pressure_sealevel;temperature;humidity
34073;BME280;20346;52.702;16.886;2023-02-28T00:00:54;102482.91;;;-2.53;68.03
34073;BME280;20346;52.702;16.886;2023-02-28T00:03:40;102477.89;;;-2.57;67.93
34073;BME280;20346;52.702;16.886;2023-02-28T00:06:26;102485.30;;;-2.60;68.06
34073;BME280;20346;52.702;16.886;2023-02-28T00:09:13;102484.73;;;-2.64;68.13
34073;BME280;20346;52.702;16.886;2023-02-28T00:11:58;102484.88;;;-2.62;68.19
34073;BME280;20346;52.702;16.886;2023-02-28T00:14:44;102484.45;;;-2.63;68.08
34073;BME280;20346;52.702;16.886;2023-02-28T00:17:30;102486.55;;;-2.64;68.10
34073;BME280;20346;52.702;16.886;2023-02-28T00:20:16;102487.81;;;-2.66;68.09
34073;BME280;20346;52.702;16.886;2023-02-28T00:23:02;102490.68;;;-2.69;68.16
34073;BME280;20346;52.702;16.886;2023-02-28T00:25:48;102492.55;;;-2.73;68.04
34073;BME280;20346;52.702;16.886;2023-02-28T00:28:36;102492.84;;;-2.79;68.07
34073;BME280;20346;52.702;16.886;2023-02-28T00:31:22;102497.85;;;-2.82;68.10
34073;BME280;20346;52.702;16.886;2023-02-28T00:34:08;102496.77;;;-2.85;68.19
34073;BME280;20346;52.702;16.886;2023-02-28T00:36:54;102499.30;;;-2.86;68.16
34073;BME280;20346;52.702;16.886;2023-02-28T00:39:40;102496.15;;;-2.87;68.13
34073;BME280;20346;52.702;16.886;2023-02-28T00:42:26;102496.00;;;-2.87;68.19
34073;BME280;20346;52.702;16.886;2023-02-28T00:45:12;102494.35;;;-2.89;68.14
34073;BME280;20346;52.702;16.886;2023-02-28T00:47:58;102496.52;;;-2.89;68.16
34073;BME280;20346;52.702;16.886;2023-02-28T00:50:44;102494.59;;;-2.93;68.06
34073;BME280;20346;52.702;16.886;2023-02-28T00:53:30;102495.34;;;-2.96;68.14
34073;BME280;20346;52.702;16.886;2023-02-28T00:56:18;102494.23;;;-2.98;68.13
34073;BME280;20346;52.702;16.886;2023-02-28T00:59:04;102492.41;;;-3.00;68.11
34073;BME280;20346;52.702;16.886;2023-02-28T01:01:50;102493.94;;;-3.02;68.15
34073;BME280;20346;52.702;16.886;2023-02-28T01:04:36;102492.70;;;-3.03;68.22
34073;BME280;20346;52.702;16.886;2023-02-28T01:07:23;102491.23;;;-3.02;68.24
34073;BME280;20346;52.702;16.886;2023-02-28T01:10:09;102489.84;;;-3.03;68.21
34073;BME280;20346;52.702;16.886;2023-02-28T01:12:55;102483.31;;;-3.07;68.25
34073;BME280;20346;52.702;16.886;2023-02-28T01:15:41;102488.86;;;-3.10;68.18
34073;BME280;20346;52.702;16.886;2023-02-28T01:18:30;102485.55;;;-3.11;68.16
34073;BME280;20346;52.702;16.886;2023-02-28T01:21:18;102482.11;;;-3.12;68.22
34073;BME280;20346;52.702;16.886;2023-02-28T01:24:04;102481.95;;;-3.17;68.15
34073;BME280;20346;52.702;16.886;2023-02-28T01:26:51;102477.35;;;-3.18;68.29
34073;BME280;20346;52.702;16.886;2023-02-28T01:29:37;102476.64;;;-3.16;68.29
34073;BME280;20346;52.702;16.886;2023-02-28T01:32:23;102474.88;;;-3.17;68.28
34073;BME280;20346;52.702;16.886;2023-02-28T01:35:09;102474.48;;;-3.20;68.12
34073;BME280;20346;52.702;16.886;2023-02-28T01:37:55;102469.42;;;-3.23;68.22
34073;BME280;20346;52.702;16.886;2023-02-28T01:40:41;102470.23;;;-3.26;68.25
34073;BME280;20346;52.702;16.886;2023-02-28T01:43:31;102469.92;;;-3.30;68.26
34073;BME280;20346;52.702;16.886;2023-02-28T01:46:17;102467.36;;;-3.33;68.26
34073;BME280;20346;52.702;16.886;2023-02-28T01:49:09;102471.02;;;-3.31;68.27
34073;BME280;20346;52.702;16.886;2023-02-28T01:51:58;102473.31;;;-3.35;68.18
34073;BME280;20346;52.702;16.886;2023-02-28T01:54:52;102473.77;;;-3.38;68.25
34073;BME280;20346;52.702;16.886;2023-02-28T01:57:43;102477.52;;;-3.40;68.30
34073;BME280;20346;52.702;16.886;2023-02-28T02:00:31;102479.85;;;-3.40;68.34
34073;BME280;20346;52.702;16.886;2023-02-28T02:03:18;102476.63;;;-3.45;68.22
34073;BME280;20346;52.702;16.886;2023-02-28T02:06:05;102482.11;;;-3.48;68.28
34073;BME280;20346;52.702;16.886;2023-02-28T02:08:51;102480.11;;;-3.51;68.19
34073;BME280;20346;52.702;16.886;2023-02-28T02:11:39;102479.91;;;-3.51;68.26
34073;BME280;20346;52.702;16.886;2023-02-28T02:17:45;102480.31;;;-3.52;68.27
34073;BME280;20346;52.702;16.886;2023-02-28T02:35:28;102477.57;;;-3.58;68.34
34073;BME280;20346;52.702;16.886;2023-02-28T02:38:52;102476.61;;;-3.62;68.29
34073;BME280;20346;52.702;16.886;2023-02-28T02:41:36;102473.07;;;-3.64;68.33
34073;BME280;20346;52.702;16.886;2023-02-28T02:44:42;102477.95;;;-3.70;68.26
34073;BME280;20346;52.702;16.886;2023-02-28T02:47:30;102473.59;;;-3.72;68.26
34073;BME280;20346;52.702;16.886;2023-02-28T02:50:19;102475.92;;;-3.72;68.33
34073;BME280;20346;52.702;16.886;2023-02-28T02:53:08;102474.76;;;-3.74;68.31
34073;BME280;20346;52.702;16.886;2023-02-28T02:55:55;102474.55;;;-3.77;68.34
34073;BME280;20346;52.702;16.886;2023-02-28T02:58:41;102467.48;;;-3.79;68.29
34073;BME280;20346;52.702;16.886;2023-02-28T03:01:30;102468.60;;;-3.82;68.38
34073;BME280;20346;52.702;16.886;2023-02-28T03:04:18;102468.25;;;-3.85;68.41
34073;BME280;20346;52.702;16.886;2023-02-28T03:07:04;102467.96;;;-3.86;68.38
34073;BME280;20346;52.702;16.886;2023-02-28T03:09:54;102469.85;;;-3.88;68.31
34073;BME280;20346;52.702;16.886;2023-02-28T03:12:44;102474.52;;;-3.94;68.37
34073;BME280;20346;52.702;16.886;2023-02-28T03:15:41;102475.79;;;-3.97;68.33
34073;BME280;20346;52.702;16.886;2023-02-28T03:21:37;102474.63;;;-4.04;68.38
34073;BME280;20346;52.702;16.886;2023-02-28T03:25:28;102476.21;;;-4.05;68.36
34073;BME280;20346;52.702;16.886;2023-02-28T03:27:53;102478.47;;;-4.11;68.29
34073;BME280;20346;52.702;16.886;2023-02-28T03:30:43;102475.39;;;-4.14;68.40
34073;BME280;20346;52.702;16.886;2023-02-28T03:33:30;102477.47;;;-4.13;68.54
34073;BME280;20346;52.702;16.886;2023-02-28T03:36:18;102473.11;;;-4.11;68.43
34073;BME280;20346;52.702;16.886;2023-02-28T03:39:06;102472.98;;;-4.10;68.48
34073;BME280;20346;52.702;16.886;2023-02-28T03:41:57;102478.88;;;-4.12;68.32
34073;BME280;20346;52.702;16.886;2023-02-28T03:44:46;102481.14;;;-4.13;68.42
34073;BME280;20346;52.702;16.886;2023-02-28T03:47:41;102480.71;;;-4.15;68.38
34073;BME280;20346;52.702;16.886;2023-02-28T03:50:32;102481.34;;;-4.20;68.41
34073;BME280;20346;52.702;16.886;2023-02-28T03:53:34;102483.23;;;-4.24;68.41
34073;BME280;20346;52.702;16.886;2023-02-28T03:56:31;102485.71;;;-4.23;68.52
34073;BME280;20346;52.702;16.886;2023-02-28T03:59:32;102482.98;;;-4.23;68.44
34073;BME280;20346;52.702;16.886;2023-02-28T04:02:20;102485.95;;;-4.24;68.51
34073;BME280;20346;52.702;16.886;2023-02-28T04:05:07;102484.96;;;-4.26;68.52
34073;BME280;20346;52.702;16.886;2023-02-28T04:07:53;102491.55;;;-4.30;68.55
34073;BME280;20346;52.702;16.886;2023-02-28T04:10:39;102494.41;;;-4.33;68.55
34073;BME280;20346;52.702;16.886;2023-02-28T04:13:27;102494.42;;;-4.32;68.53
34073;BME280;20346;52.702;16.886;2023-02-28T04:16:13;102491.90;;;-4.32;68.58
34073;BME280;20346;52.702;16.886;2023-02-28T04:18:59;102495.70;;;-4.33;68.54
34073;BME280;20346;52.702;16.886;2023-02-28T04:21:49;102498.30;;;-4.39;68.46
34073;BME280;20346;52.702;16.886;2023-02-28T04:24:36;102497.21;;;-4.43;68.55
34073;BME280;20346;52.702;16.886;2023-02-28T04:27:23;102497.79;;;-4.46;68.44
34073;BME280;20346;52.702;16.886;2023-02-28T04:30:09;102500.64;;;-4.48;68.47
34073;BME280;20346;52.702;16.886;2023-02-28T04:32:55;102502.54;;;-4.50;68.48
34073;BME280;20346;52.702;16.886;2023-02-28T04:35:41;102500.70;;;-4.50;68.49
34073;BME280;20346;52.702;16.886;2023-02-28T04:38:28;102504.08;;;-4.50;68.54
34073;BME280;20346;52.702;16.886;2023-02-28T04:41:14;102507.91;;;-4.54;68.49
34073;BME280;20346;52.702;16.886;2023-02-28T04:44:00;102509.06;;;-4.62;68.47
34073;BME280;20346;52.702;16.886;2023-02-28T04:46:47;102509.77;;;-4.66;68.48
34073;BME280;20346;52.702;16.886;2023-02-28T04:49:33;102510.86;;;-4.70;68.41
34073;BME280;20346;52.702;16.886;2023-02-28T04:52:19;102511.42;;;-4.71;68.54
34073;BME280;20346;52.702;16.886;2023-02-28T04:55:05;102519.88;;;-4.68;68.56
34073;BME280;20346;52.702;16.886;2023-02-28T04:57:51;102521.19;;;-4.69;68.57
34073;BME280;20346;52.702;16.886;2023-02-28T05:00:37;102527.30;;;-4.68;68.56
34073;BME280;20346;52.702;16.886;2023-02-28T05:03:24;102527.83;;;-4.70;68.44
34073;BME280;20346;52.702;16.886;2023-02-28T05:06:11;102529.05;;;-4.76;68.49
34073;BME280;20346;52.702;16.886;2023-02-28T05:08:58;102531.94;;;-4.78;68.48
34073;BME280;20346;52.702;16.886;2023-02-28T05:11:44;102536.33;;;-4.79;68.58
34073;BME280;20346;52.702;16.886;2023-02-28T05:14:30;102535.77;;;-4.80;68.53
34073;BME280;20346;52.702;16.886;2023-02-28T05:17:17;102536.64;;;-4.80;68.59
34073;BME280;20346;52.702;16.886;2023-02-28T05:20:03;102537.63;;;-4.76;68.66
34073;BME280;20346;52.702;16.886;2023-02-28T05:22:50;102542.55;;;-4.75;68.58
34073;BME280;20346;52.702;16.886;2023-02-28T05:25:38;102544.04;;;-4.73;68.64
34073;BME280;20346;52.702;16.886;2023-02-28T05:28:24;102541.09;;;-4.72;68.63
34073;BME280;20346;52.702;16.886;2023-02-28T05:31:10;102535.71;;;-4.72;68.62
34073;BME280;20346;52.702;16.886;2023-02-28T05:33:57;102540.58;;;-4.72;68.59
34073;BME280;20346;52.702;16.886;2023-02-28T05:36:43;102541.65;;;-4.74;68.63
34073;BME280;20346;52.702;16.886;2023-02-28T05:39:29;102541.83;;;-4.74;68.65
34073;BME280;20346;52.702;16.886;2023-02-28T05:42:15;102543.21;;;-4.73;68.63
34073;BME280;20346;52.702;16.886;2023-02-28T05:45:01;102546.30;;;-4.70;68.68
34073;BME280;20346;52.702;16.886;2023-02-28T05:47:47;102551.75;;;-4.71;68.58
34073;BME280;20346;52.702;16.886;2023-02-28T05:50:33;102552.44;;;-4.76;68.60
34073;BME280;20346;52.702;16.886;2023-02-28T05:53:19;102550.44;;;-4.80;68.65
34073;BME280;20346;52.702;16.886;2023-02-28T05:56:05;102552.77;;;-4.82;68.61
34073;BME280;20346;52.702;16.886;2023-02-28T05:58:51;102555.98;;;-4.80;68.70
34073;BME280;20346;52.702;16.886;2023-02-28T06:01:38;102552.79;;;-4.75;68.77
34073;BME280;20346;52.702;16.886;2023-02-28T06:04:25;102551.05;;;-4.72;68.71
34073;BME280;20346;52.702;16.886;2023-02-28T06:07:11;102552.55;;;-4.67;68.73
34073;BME280;20346;52.702;16.886;2023-02-28T06:09:57;102553.98;;;-4.59;68.89
34073;BME280;20346;52.702;16.886;2023-02-28T06:12:44;102550.83;;;-4.46;68.99
34073;BME280;20346;52.702;16.886;2023-02-28T06:15:30;102549.67;;;-4.34;68.93
34073;BME280;20346;52.702;16.886;2023-02-28T06:18:16;102553.73;;;-4.23;68.83
34073;BME280;20346;52.702;16.886;2023-02-28T06:21:02;102557.63;;;-4.11;68.93
34073;BME280;20346;52.702;16.886;2023-02-28T06:23:48;102558.77;;;-4.02;68.78
34073;BME280;20346;52.702;16.886;2023-02-28T06:26:34;102560.90;;;-3.94;68.93
34073;BME280;20346;52.702;16.886;2023-02-28T06:29:21;102558.84;;;-3.85;68.98
34073;BME280;20346;52.702;16.886;2023-02-28T06:32:07;102559.21;;;-3.74;69.03
34073;BME280;20346;52.702;16.886;2023-02-28T06:34:53;102558.17;;;-3.57;69.16
34073;BME280;20346;52.702;16.886;2023-02-28T06:37:39;102559.14;;;-3.30;69.46
34073;BME280;20346;52.702;16.886;2023-02-28T06:40:25;102561.73;;;-2.90;69.48
34073;BME280;20346;52.702;16.886;2023-02-28T06:43:11;102559.70;;;-2.49;69.54
34073;BME280;20346;52.702;16.886;2023-02-28T06:46:01;102561.83;;;-1.96;69.54
34073;BME280;20346;52.702;16.886;2023-02-28T06:48:48;102560.64;;;-1.50;69.54
34073;BME280;20346;52.702;16.886;2023-02-28T06:51:35;102561.50;;;-1.06;69.51
34073;BME280;20346;52.702;16.886;2023-02-28T06:54:21;102559.43;;;-0.51;69.49
34073;BME280;20346;52.702;16.886;2023-02-28T06:57:07;102559.11;;;0.10;69.55
34073;BME280;20346;52.702;16.886;2023-02-28T06:59:53;102553.77;;;0.59;69.44
34073;BME280;20346;52.702;16.886;2023-02-28T07:02:40;102556.79;;;1.15;69.53
34073;BME280;20346;52.702;16.886;2023-02-28T07:05:26;102557.33;;;1.74;69.57
34073;BME280;20346;52.702;16.886;2023-02-28T07:08:13;102560.48;;;2.38;69.65
34073;BME280;20346;52.702;16.886;2023-02-28T07:10:59;102558.83;;;2.89;69.54
34073;BME280;20346;52.702;16.886;2023-02-28T07:13:45;102561.66;;;3.33;69.55
34073;BME280;20346;52.702;16.886;2023-02-28T07:16:33;102563.04;;;3.76;69.49
34073;BME280;20346;52.702;16.886;2023-02-28T07:19:19;102562.66;;;4.08;69.52
34073;BME280;20346;52.702;16.886;2023-02-28T07:22:06;102561.45;;;4.33;69.67
34073;BME280;20346;52.702;16.886;2023-02-28T07:24:52;102563.19;;;4.54;69.55
34073;BME280;20346;52.702;16.886;2023-02-28T07:27:38;102562.04;;;4.69;69.67
34073;BME280;20346;52.702;16.886;2023-02-28T07:30:24;102562.67;;;4.90;69.77
34073;BME280;20346;52.702;16.886;2023-02-28T07:33:10;102560.02;;;5.19;69.80
34073;BME280;20346;52.702;16.886;2023-02-28T07:36:03;102563.31;;;5.44;69.82
34073;BME280;20346;52.702;16.886;2023-02-28T07:38:49;102563.91;;;5.70;70.00
34073;BME280;20346;52.702;16.886;2023-02-28T07:41:35;102561.88;;;5.95;69.97
34073;BME280;20346;52.702;16.886;2023-02-28T07:44:25;102571.73;;;6.24;70.06
34073;BME280;20346;52.702;16.886;2023-02-28T07:47:11;102570.47;;;6.43;70.05
34073;BME280;20346;52.702;16.886;2023-02-28T07:49:57;102567.45;;;6.60;69.94
34073;BME280;20346;52.702;16.886;2023-02-28T07:52:43;102565.58;;;6.78;69.96
34073;BME280;20346;52.702;16.886;2023-02-28T07:55:29;102563.09;;;6.92;70.05
34073;BME280;20346;52.702;16.886;2023-02-28T07:58:15;102563.72;;;7.08;70.34
34073;BME280;20346;52.702;16.886;2023-02-28T08:01:05;102559.49;;;7.21;70.39
34073;BME280;20346;52.702;16.886;2023-02-28T08:03:51;102559.96;;;7.39;70.56
34073;BME280;20346;52.702;16.886;2023-02-28T08:06:37;102559.88;;;7.60;70.46
34073;BME280;20346;52.702;16.886;2023-02-28T08:09:23;102555.05;;;7.79;70.70
34073;BME280;20346;52.702;16.886;2023-02-28T08:12:09;102553.28;;;7.90;70.53
34073;BME280;20346;52.702;16.886;2023-02-28T08:14:56;102553.27;;;8.10;70.50
34073;BME280;20346;52.702;16.886;2023-02-28T08:17:42;102550.70;;;8.31;70.41
34073;BME280;20346;52.702;16.886;2023-02-28T08:20:28;102555.88;;;8.53;70.18
34073;BME280;20346;52.702;16.886;2023-02-28T08:23:14;102552.09;;;8.60;70.31
34073;BME280;20346;52.702;16.886;2023-02-28T08:26:01;102554.83;;;8.67;70.14
34073;BME280;20346;52.702;16.886;2023-02-28T08:28:47;102551.08;;;8.61;69.93
34073;BME280;20346;52.702;16.886;2023-02-28T08:31:33;102552.31;;;8.48;69.85
34073;BME280;20346;52.702;16.886;2023-02-28T08:34:21;102553.20;;;8.07;70.07
34073;BME280;20346;52.702;16.886;2023-02-28T08:37:07;102556.67;;;7.62;70.25
34073;BME280;20346;52.702;16.886;2023-02-28T08:39:53;102557.98;;;7.17;70.20
34073;BME280;20346;52.702;16.886;2023-02-28T08:42:39;102560.89;;;6.65;70.38
34073;BME280;20346;52.702;16.886;2023-02-28T08:45:25;102560.08;;;6.18;70.38
34073;BME280;20346;52.702;16.886;2023-02-28T08:48:11;102558.41;;;5.75;70.36
34073;BME280;20346;52.702;16.886;2023-02-28T08:51:01;102559.31;;;5.37;70.20
34073;BME280;20346;52.702;16.886;2023-02-28T08:53:48;102565.73;;;5.07;70.28
34073;BME280;20346;52.702;16.886;2023-02-28T08:56:35;102565.42;;;4.82;70.20
34073;BME280;20346;52.702;16.886;2023-02-28T08:59:22;102569.73;;;4.56;70.05
34073;BME280;20346;52.702;16.886;2023-02-28T09:02:09;102570.88;;;4.34;69.90
34073;BME280;20346;52.702;16.886;2023-02-28T09:04:57;102580.80;;;4.05;69.75
34073;BME280;20346;52.702;16.886;2023-02-28T09:07:43;102577.70;;;3.84;69.68
34073;BME280;20346;52.702;16.886;2023-02-28T09:10:29;102575.33;;;3.65;69.67
34073;BME280;20346;52.702;16.886;2023-02-28T09:13:15;102577.32;;;3.48;69.63
34073;BME280;20346;52.702;16.886;2023-02-28T09:16:02;102580.65;;;3.31;69.52
34073;BME280;20346;52.702;16.886;2023-02-28T09:18:49;102579.35;;;3.21;69.44
34073;BME280;20346;52.702;16.886;2023-02-28T09:21:35;102579.34;;;3.13;69.36
34073;BME280;20346;52.702;16.886;2023-02-28T09:24:21;102582.34;;;3.04;69.23
34073;BME280;20346;52.702;16.886;2023-02-28T09:27:07;102584.69;;;2.92;69.01
34073;BME280;20346;52.702;16.886;2023-02-28T09:29:53;102590.64;;;2.85;69.10
34073;BME280;20346;52.702;16.886;2023-02-28T09:32:40;102589.33;;;2.79;69.04
34073;BME280;20346;52.702;16.886;2023-02-28T09:35:26;102586.05;;;2.71;68.98
34073;BME280;20346;52.702;16.886;2023-02-28T09:38:12;102591.28;;;2.62;68.92
34073;BME280;20346;52.702;16.886;2023-02-28T09:41:00;102590.76;;;2.58;68.92
34073;BME280;20346;52.702;16.886;2023-02-28T09:43:50;102594.00;;;2.55;68.90
34073;BME280;20346;52.702;16.886;2023-02-28T09:46:42;102592.50;;;2.52;68.94
34073;BME280;20346;52.702;16.886;2023-02-28T09:49:35;102599.82;;;2.52;68.90
34073;BME280;20346;52.702;16.886;2023-02-28T09:52:25;102597.34;;;2.50;68.73
34073;BME280;20346;52.702;16.886;2023-02-28T09:58:28;102590.48;;;2.52;68.82
34073;BME280;20346;52.702;16.886;2023-02-28T10:07:37;102583.48;;;2.52;68.50
34073;BME280;20346;52.702;16.886;2023-02-28T10:10:30;102587.52;;;2.51;68.32
34073;BME280;20346;52.702;16.886;2023-02-28T10:13:26;102584.88;;;2.46;68.10
34073;BME280;20346;52.702;16.886;2023-02-28T10:19:27;102579.42;;;2.46;68.10
34073;BME280;20346;52.702;16.886;2023-02-28T10:22:22;102574.48;;;2.46;68.12
34073;BME280;20346;52.702;16.886;2023-02-28T10:25:17;102577.19;;;2.45;67.78
34073;BME280;20346;52.702;16.886;2023-02-28T10:31:14;102573.72;;;2.48;67.75
34073;BME280;20346;52.702;16.886;2023-02-28T10:34:02;102572.02;;;2.48;67.68
34073;BME280;20346;52.702;16.886;2023-02-28T10:36:50;102570.98;;;2.47;67.73
34073;BME280;20346;52.702;16.886;2023-02-28T10:39:43;102566.48;;;2.49;67.72
34073;BME280;20346;52.702;16.886;2023-02-28T10:42:29;102565.05;;;2.51;67.54
34073;BME280;20346;52.702;16.886;2023-02-28T10:45:16;102563.16;;;2.54;67.64
34073;BME280;20346;52.702;16.886;2023-02-28T10:48:23;102561.67;;;2.55;67.52
34073;BME280;20346;52.702;16.886;2023-02-28T10:51:10;102555.21;;;2.56;67.48
34073;BME280;20346;52.702;16.886;2023-02-28T10:53:57;102547.73;;;2.56;67.65
34073;BME280;20346;52.702;16.886;2023-02-28T10:56:44;102540.10;;;2.60;67.80
34073;BME280;20346;52.702;16.886;2023-02-28T10:59:30;102531.21;;;2.67;67.76
34073;BME280;20346;52.702;16.886;2023-02-28T11:05:38;102530.48;;;2.77;67.62
34073;BME280;20346;52.702;16.886;2023-02-28T11:08:27;102530.66;;;2.81;67.67
34073;BME280;20346;52.702;16.886;2023-02-28T11:11:13;102536.02;;;2.86;67.54
34073;BME280;20346;52.702;16.886;2023-02-28T11:14:04;102535.42;;;2.88;67.36
34073;BME280;20346;52.702;16.886;2023-02-28T11:16:51;102535.11;;;2.92;67.55
34073;BME280;20346;52.702;16.886;2023-02-28T11:19:39;102535.80;;;2.96;67.53
34073;BME280;20346;52.702;16.886;2023-02-28T11:22:27;102536.33;;;2.96;67.32
34073;BME280;20346;52.702;16.886;2023-02-28T11:25:26;102532.00;;;2.98;67.25
34073;BME280;20346;52.702;16.886;2023-02-28T11:28:28;102533.25;;;3.04;67.33
34073;BME280;20346;52.702;16.886;2023-02-28T11:31:17;102530.73;;;3.04;67.17
34073;BME280;20346;52.702;16.886;2023-02-28T11:34:21;102531.93;;;3.05;67.08
34073;BME280;20346;52.702;16.886;2023-02-28T11:37:15;102524.20;;;3.03;67.19
34073;BME280;20346;52.702;16.886;2023-02-28T11:40:13;102522.42;;;3.05;67.20
34073;BME280;20346;52.702;16.886;2023-02-28T11:49:26;102512.16;;;3.16;66.84
34073;BME280;20346;52.702;16.886;2023-02-28T11:52:21;102508.19;;;3.15;67.13
34073;BME280;20346;52.702;16.886;2023-02-28T11:55:17;102506.23;;;3.21;67.10
34073;BME280;20346;52.702;16.886;2023-02-28T12:00:57;102504.80;;;3.23;66.97
34073;BME280;20346;52.702;16.886;2023-02-28T12:21:42;102490.90;;;3.25;66.50
34073;BME280;20346;52.702;16.886;2023-02-28T12:27:37;102486.95;;;3.28;66.09
34073;BME280;20346;52.702;16.886;2023-02-28T12:30:25;102487.57;;;3.26;66.38
34073;BME280;20346;52.702;16.886;2023-02-28T12:33:13;102490.09;;;3.26;66.54
34073;BME280;20346;52.702;16.886;2023-02-28T12:36:02;102486.11;;;3.28;66.45
34073;BME280;20346;52.702;16.886;2023-02-28T12:38:52;102486.15;;;3.29;66.35
34073;BME280;20346;52.702;16.886;2023-02-28T12:41:45;102483.05;;;3.28;66.38
34073;BME280;20346;52.702;16.886;2023-02-28T12:47:19;102475.75;;;3.29;66.36
34073;BME280;20346;52.702;16.886;2023-02-28T12:50:06;102476.55;;;3.31;66.33
34073;BME280;20346;52.702;16.886;2023-02-28T12:56:01;102461.77;;;3.37;66.23
34073;BME280;20346;52.702;16.886;2023-02-28T12:58:57;102461.55;;;3.40;66.22
34073;BME280;20346;52.702;16.886;2023-02-28T13:11:23;102452.29;;;3.46;66.20
34073;BME280;20346;52.702;16.886;2023-02-28T13:17:25;102452.48;;;3.51;66.07
34073;BME280;20346;52.702;16.886;2023-02-28T13:20:21;102450.70;;;3.53;66.01
34073;BME280;20346;52.702;16.886;2023-02-28T13:23:35;102448.73;;;3.55;65.96
34073;BME280;20346;52.702;16.886;2023-02-28T13:26:15;102445.89;;;3.56;66.06
34073;BME280;20346;52.702;16.886;2023-02-28T13:29:20;102443.50;;;3.60;65.84
34073;BME280;20346;52.702;16.886;2023-02-28T13:37:43;102438.41;;;3.57;65.75
34073;BME280;20346;52.702;16.886;2023-02-28T13:40:31;102436.83;;;3.56;65.80
34073;BME280;20346;52.702;16.886;2023-02-28T13:43:23;102437.21;;;3.57;65.87
34073;BME280;20346;52.702;16.886;2023-02-28T13:46:28;102433.72;;;3.59;65.84
34073;BME280;20346;52.702;16.886;2023-02-28T13:52:30;102424.98;;;3.58;65.67
34073;BME280;20346;52.702;16.886;2023-02-28T13:55:23;102415.98;;;3.55;65.72
34073;BME280;20346;52.702;16.886;2023-02-28T14:01:07;102417.31;;;3.54;65.78
34073;BME280;20346;52.702;16.886;2023-02-28T14:04:01;102410.91;;;3.52;65.69
34073;BME280;20346;52.702;16.886;2023-02-28T14:06:52;102408.55;;;3.48;65.70
34073;BME280;20346;52.702;16.886;2023-02-28T14:09:45;102401.46;;;3.46;65.70
34073;BME280;20346;52.702;16.886;2023-02-28T14:12:52;102398.77;;;3.47;65.70
34073;BME280;20346;52.702;16.886;2023-02-28T14:18:49;102396.33;;;3.46;65.52
34073;BME280;20346;52.702;16.886;2023-02-28T14:21:38;102393.73;;;3.44;65.61
34073;BME280;20346;52.702;16.886;2023-02-28T14:27:42;102382.19;;;3.41;65.36
34073;BME280;20346;52.702;16.886;2023-02-28T14:36:32;102379.75;;;3.36;65.23
34073;BME280;20346;52.702;16.886;2023-02-28T14:39:20;102374.94;;;3.36;65.10
34073;BME280;20346;52.702;16.886;2023-02-28T14:42:25;102381.23;;;3.35;65.11
34073;BME280;20346;52.702;16.886;2023-02-28T14:45:22;102378.78;;;3.33;64.96
34073;BME280;20346;52.702;16.886;2023-02-28T14:48:08;102382.82;;;3.32;64.89
34073;BME280;20346;52.702;16.886;2023-02-28T14:50:59;102380.67;;;3.29;64.75
34073;BME280;20346;52.702;16.886;2023-02-28T14:53:45;102379.87;;;3.27;64.72
34073;BME280;20346;52.702;16.886;2023-02-28T14:56:35;102380.80;;;3.25;64.67
34073;BME280;20346;52.702;16.886;2023-02-28T14:59:27;102373.56;;;3.23;64.66
34073;BME280;20346;52.702;16.886;2023-02-28T15:05:30;102373.60;;;3.20;64.66
34073;BME280;20346;52.702;16.886;2023-02-28T15:08:17;102374.77;;;3.19;64.69
34073;BME280;20346;52.702;16.886;2023-02-28T15:11:13;102373.62;;;3.16;64.65
34073;BME280;20346;52.702;16.886;2023-02-28T15:14:00;102374.02;;;3.13;64.62
34073;BME280;20346;52.702;16.886;2023-02-28T15:16:55;102380.30;;;3.13;64.60
34073;BME280;20346;52.702;16.886;2023-02-28T15:19:43;102375.14;;;3.11;64.55
34073;BME280;20346;52.702;16.886;2023-02-28T15:22:35;102375.52;;;3.08;64.43
34073;BME280;20346;52.702;16.886;2023-02-28T15:25:23;102371.88;;;3.07;64.46
34073;BME280;20346;52.702;16.886;2023-02-28T15:28:11;102371.42;;;3.04;64.46
34073;BME280;20346;52.702;16.886;2023-02-28T15:31:01;102370.80;;;3.02;64.46
34073;BME280;20346;52.702;16.886;2023-02-28T15:33:52;102374.41;;;2.98;64.40
34073;BME280;20346;52.702;16.886;2023-02-28T15:36:39;102372.91;;;2.95;64.47
34073;BME280;20346;52.702;16.886;2023-02-28T15:39:26;102370.91;;;2.92;64.38
34073;BME280;20346;52.702;16.886;2023-02-28T15:42:18;102374.08;;;2.91;64.42
34073;BME280;20346;52.702;16.886;2023-02-28T15:45:04;102379.03;;;2.87;64.48
34073;BME280;20346;52.702;16.886;2023-02-28T15:47:51;102377.40;;;2.81;64.43
34073;BME280;20346;52.702;16.886;2023-02-28T15:50:37;102374.07;;;2.75;64.50
34073;BME280;20346;52.702;16.886;2023-02-28T15:53:28;102373.46;;;2.69;64.43
34073;BME280;20346;52.702;16.886;2023-02-28T15:59:29;102371.02;;;2.55;64.45
34073;BME280;20346;52.702;16.886;2023-02-28T16:02:20;102370.21;;;2.49;64.44
34073;BME280;20346;52.702;16.886;2023-02-28T16:08:17;102368.48;;;2.33;64.46
34073;BME280;20346;52.702;16.886;2023-02-28T16:11:03;102371.30;;;2.28;64.42
34073;BME280;20346;52.702;16.886;2023-02-28T16:13:49;102368.45;;;2.22;64.51
34073;BME280;20346;52.702;16.886;2023-02-28T16:16:41;102365.75;;;2.15;64.55
34073;BME280;20346;52.702;16.886;2023-02-28T16:19:27;102365.10;;;2.08;64.44
34073;BME280;20346;52.702;16.886;2023-02-28T16:22:14;102367.63;;;2.00;64.46
34073;BME280;20346;52.702;16.886;2023-02-28T16:25:00;102367.07;;;1.91;64.46
34073;BME280;20346;52.702;16.886;2023-02-28T16:27:50;102367.13;;;1.82;64.47
34073;BME280;20346;52.702;16.886;2023-02-28T16:30:40;102366.84;;;1.73;64.46
34073;BME280;20346;52.702;16.886;2023-02-28T16:33:26;102369.40;;;1.62;64.45
34073;BME280;20346;52.702;16.886;2023-02-28T16:36:13;102374.87;;;1.52;64.39
34073;BME280;20346;52.702;16.886;2023-02-28T16:39:00;102372.42;;;1.40;64.28